createdAt,value
2022-12-14T00:07:09.169Z,650.82298
2022-12-14T00:22:11.572Z,599.99473
2022-12-14T00:37:13.862Z,529.43361
2022-12-14T00:52:16.224Z,538.71483
2022-12-14T01:07:18.438Z,517.41866
2022-12-14T01:22:20.655Z,462.5615
2022-12-14T01:37:22.852Z,480.15893
2022-12-14T01:52:25.071Z,493.91609
2022-12-14T02:07:27.313Z,533.42933
2022-12-14T02:22:29.600Z,515.1559
2022-12-14T02:37:31.786Z,527.45812
2022-12-14T02:52:34.176Z,559.61507
2022-12-14T03:07:36.445Z,529.03733
2022-12-14T03:22:38.655Z,571.37739
2022-12-14T03:37:40.898Z,599.48583
2022-12-14T03:52:43.133Z,589.97814
2022-12-14T04:07:45.317Z,622.72579
2022-12-14T04:22:50.792Z,657.48256
2022-12-14T04:37:52.992Z,656.2616
2022-12-14T04:52:55.217Z,664.27983
2022-12-14T05:07:57.400Z,672.49642
2022-12-14T05:22:59.618Z,724.17387
2022-12-14T05:38:01.841Z,724.91661
2022-12-14T05:53:04.151Z,716.82931
2022-12-14T06:08:06.338Z,692.25634
2022-12-14T06:23:08.607Z,713.93304
2022-12-14T06:38:10.843Z,757.49514
2022-12-14T06:53:13.040Z,763.21517
2022-12-14T07:08:15.524Z,805.80915
2022-12-14T07:23:17.805Z,840.76104
2022-12-14T07:38:20.272Z,840.26178
2022-12-14T07:53:22.707Z,900.12772
2022-12-14T08:08:24.917Z,914.08319
2022-12-14T08:23:27.637Z,895.00366
2022-12-14T08:38:30.370Z,923.02724
2022-12-14T08:53:32.851Z,888.26164
2022-12-14T09:08:35.320Z,861.22996
2022-12-14T09:23:37.723Z,872.38028
2022-12-14T09:38:40.775Z,892.74498
2022-12-14T09:53:45.480Z,851.89695
2022-12-14T10:08:54.214Z,855.50231
2022-12-14T10:23:56.960Z,901.84881
2022-12-14T10:38:59.185Z,882.7204
2022-12-14T10:54:01.413Z,904.73196
2022-12-14T11:09:03.615Z,941.45093
2022-12-14T11:24:05.791Z,929.69826
2022-12-14T11:39:07.989Z,932.14806
2022-12-14T11:54:10.188Z,955.43602
2022-12-14T12:09:12.549Z,939.57553
2022-12-14T12:24:14.731Z,889.9376
2022-12-14T12:39:16.935Z,895.00366
2022-12-14T12:54:19.125Z,886.59198
2022-12-14T13:09:21.339Z,885.48235
2022-12-14T13:24:23.569Z,974.51841
2022-12-14T13:39:25.760Z,1076.86504
2022-12-14T13:54:28.005Z,1329.88773
2022-12-14T14:09:30.257Z,1213.55111
2022-12-14T14:24:32.462Z,1187.08104
2022-12-14T14:39:56.691Z,1085.95599
2022-12-14T14:55:43.546Z,1079.32926
2022-12-14T15:10:54.065Z,1295.78805
2022-12-14T15:25:56.272Z,1472.42507
2022-12-14T15:40:58.692Z,1659.82454
2022-12-14T15:56:05.283Z,1717.2335
2022-12-14T16:11:10.775Z,1855.7382
2022-12-14T16:26:12.990Z,1814.10306
2022-12-14T16:41:15.233Z,2028.67434
2022-12-14T16:56:17.448Z,1977.63851
2022-12-14T17:11:19.697Z,1884.15496
2022-12-14T17:26:21.943Z,1784.36367
2022-12-14T17:41:24.127Z,2038.9054
2022-12-14T17:56:26.327Z,1916.04654
2022-12-14T18:11:28.519Z,1973.5012
2022-12-14T18:26:30.967Z,2099.40703
2022-12-14T18:41:35.266Z,2197.20547
2022-12-14T18:56:39.281Z,2431.27199
2022-12-14T19:11:41.690Z,2293.35545
2022-12-14T19:26:49.665Z,2652.29668
2022-12-14T19:41:55.045Z,2526.78623
2022-12-14T19:56:59.653Z,2565.73034
2022-12-14T20:12:02.869Z,2427.10171
2022-12-14T20:27:05.163Z,2108.79335
2022-12-14T20:42:07.630Z,1779.87471
2022-12-14T20:57:09.909Z,2071.74281
2022-12-14T21:12:12.162Z,2342.71574
2022-12-14T21:27:14.374Z,2742.24858
2022-12-14T21:42:16.558Z,3341.20474
2022-12-14T21:57:18.878Z,3387.19379
2022-12-14T22:12:21.047Z,2642.39081
2022-12-14T22:27:23.246Z,1659.82454
2022-12-14T22:42:25.469Z,1187.08104
2022-12-14T22:57:27.666Z,965.21196
2022-12-14T23:12:29.939Z,815.56246
2022-12-14T23:27:32.247Z,757.49514
2022-12-14T23:42:34.449Z,787.86241
2022-12-14T23:57:36.781Z,765.69314
